Aktualne dane pomiarowe

Uwaga, wersja testowa! Automatyczne pobieranie danych za pomocą narzędzi lub skryptów to umożliwiających jest zabronione.

Dane meteo z obszaru Polski uzyskane na podstawie depesz SYNOP pobieranych co godzinę z NWS. Najedź myszką na symbol przedstawiony w tabeli, aby uzyskać informacje co do jego znaczenia. Prosimy pamiętać, że to testowa wersja strony, która jeszcze nie jest ukończona. Stworzono również jest krótki FAQ dotyczący korzystania z tej podstrony Anomalie temperatury w chwili obecnej odniesione są do okresu referencyjnego 1951-2016. Okres ten będzie później zmieniony na 1981-2010. Kliknij ikonę aby pobrać plik CSV. Kliknij ikonę aby wygenerować mapę synoptyczną dla danego terminu.

Wybierz Datę:    

        

Rzeszów-Jasionka (12580)

Dane terminowe dla wybranej stacji. Kliknij datę, aby otrzymać dane z tego terminu dla wszystkich stacji.

TemperaturaZachmurzenieWiatrCiśnienieOpadyPogoda
 Data t td wb tx tn tg rh  Nt Nl Cl Cm Ch ws wd g1 g2 wx mslp ppp ch 24h 12h t ww ww w1 w2  
2019-07-20 23:00:00 19.4 16.1 17.1--- 8130.0wx-1wx--11017.8 992.3 0.2---------
2019-07-20 22:00:00 19.6 16.1 17.2--- 8030.0wx-2wx--21017.9 992.4 0.7---------
2019-07-20 21:00:00 19.6 16.2 17.2--- 8130.0wx-2wx---1017.8 992.3 0.7---------
2019-07-20 20:00:00 20.2 16.2 17.4--- 7830.0wx-wx2wx--21017.5 992.1 0.5---------
2019-07-20 19:00:00 21.0 16.0 17.6--- 7330.0wxwxwxwx1wx--11017.0 991.7 0.6---------
2019-07-20 18:00:00 22.9 15.7 18.2 27.8 20.8- 6430.0wxwxwxwx3wx-831016.7 991.6 0.3- 0.012------
2019-07-20 17:00:00 24.8 15.4 18.7--- 5630.0wxwxwx7wx--71016.6 991.6 0.1---------
2019-07-20 16:00:00 27.3 14.0 19.0--- 4430.0wxwxwxwx4wx--41015.9 991.1 -0.8---------
2019-07-20 15:00:00 27.3 14.3 19.1--- 4530.0wxwxwxwx4wx---1016.1 991.3 -1.0---------
2019-07-20 14:00:00 26.7 14.1 18.8--- 4630.0wxwxwxwx5wx--51016.3 991.5 -1.0---------
2019-07-20 13:00:00 25.6 13.8 18.2--- 4830.0wxwxwxwx3wx--31016.8 991.9 -0.8---------
2019-07-20 12:00:00 25.9 13.1 18.0--- 4530.0wxwxwxwxwx5wx--51017.2 992.3 -0.3- 0.06------
2019-07-20 11:00:00 25.0 13.9 18.0--- 5030.0wxwxwxwx4wx--41017.5 992.5 0.2---------
2019-07-20 10:00:00 24.4 13.3 17.5--- 5030.0wxwxwxwxwx4wx--41017.7 992.7 0.5---------
2019-07-20 09:00:00 24.1 13.0 17.2--- 5030.0wxwxwxwxwx5wx--51017.7 992.6 0.3---------
2019-07-20 08:00:00 23.8 13.9 17.5--- 5430.0wx-wxwx3wx--31017.4 992.3 0.2---------
2019-07-20 07:00:00 22.5 14.1 17.1--- 5930.0wx-wxwx2wx--21017.4 992.2 0.3---------
2019-07-20 06:00:00 20.8 14.2 16.5 22.7 16.3 13 6630.0wx-wxwx2wx--21017.6 992.3 0.7--12------
2019-07-20 05:00:00 17.9 14.4 15.5--- 8030.0wx-wxwx2wx---1017.7 992.1 0.6---------
2019-07-20 04:00:00 17.1 13.8 14.9--- 8130.0wx-wx2wx--21017.6 991.9 0.7---------
2019-07-20 03:00:00 16.6 13.7 14.6--- 8330.0wxwxwxwx1wx--11017.3 991.6 0.5---------
2019-07-20 02:00:00 16.5 13.8 14.6--- 8430.0wx-wx1wx--11017.2 991.5 0.3---------
2019-07-20 01:00:00 17.0 13.7 14.8--- 8130.0wx-wx2wx--21016.9 991.2 0.2---------
2019-07-20 00:00:00 18.0 13.3 14.9--- 7430.0wx-wx2wx--21016.7 991.1 0.2--6wx-w1--
2019-07-19 23:00:00 17.7 13.6 15.0--- 7730.0wx-wx2wx---1016.8 991.2 0.5---------
2019-07-19 22:00:00 18.2 13.3 15.0--- 7330.0wx-wx1wx--11016.5 991.0 0.6---------
2019-07-19 21:00:00 18.8 13.4 15.3--- 7130.0wx-wx1wx--11016.4 990.9 0.9---wx-w1--
2019-07-19 20:00:00 19.5 13.4 15.5--- 6830.0wx-wx1wx--11016.1 990.7 1.1---------
2019-07-19 19:00:00 21.3 13.2 16.2--- 6030.0wx-wx4wx--41015.7 990.4 1.4---wx---
2019-07-19 18:00:00 22.7 12.6 16.4 28.1 18.1- 5330.0wxwxwxwx5wx--51015.1 990.0 1.2--12wx---
2019-07-19 17:00:00 24.1 11.8 16.6--- 4630.0wxwxwxwx4wx--41014.6 989.6 0.7---------
2019-07-19 16:00:00 27.1 8.0 16.2--- 3030.0wxwxwxwxwx5wx--51013.7 989.0 -0.2---------
2019-07-19 15:00:00 27.2 8.1 16.3--- 3030.0wxwxwxwxwx3wx--31013.5 988.8 -0.8---------
2019-07-19 14:00:00 27.6 8.0 16.4--- 2930.0wxwxwxwx3wx--31013.6 988.9 -1.0---------
2019-07-19 13:00:00 27.4 8.3 16.4--- 3030.0wxwxwxwx4wx--41013.9 989.2 -0.9---------
2019-07-19 12:00:00 27.7 9.0 16.8--- 3130.0wxwxwxwx3wx--31014.3 989.6 -0.6- 0.06------
2019-07-19 11:00:00 25.6 7.7 15.4--- 3230.0wxwxwxwx3wx--31014.8 989.9 -0.4---------
2019-07-19 10:00:00 25.3 6.9 15.0--- 3130.0wxwxwxwxwx2wx--21015.0 990.1 -0.2---------
2019-07-19 09:00:00 24.8 7.4 15.0--- 3330.0wxwxwxwx4wx--41015.1 990.2 -0.1---------
2019-07-19 08:00:00 23.8 11.5 16.4--- 4630.0wxwxwxwx3wx--31015.3 990.3 0.1---------
2019-07-19 07:00:00 21.7 12.5 16.0--- 5630.0wx-wx2wx--21015.5 990.3 0.3---------
2019-07-19 06:00:00 18.1 12.5 14.5 21.2 9.1 7 7030.0wx-wx1wx--11015.8 990.3 0.2- 0.012------
2019-07-19 05:00:00 14.3 11.6 12.5--- 8430.0wx-wx1wx--11016.1 990.2 0.3----22----
2019-07-19 04:00:00 11.1 10.6 10.7--- 9730.0wx-wx1wx--11016.2 990.0 0.2----22----
2019-07-19 03:00:00 10.1 9.9 9.9--- 9930.0wx-wx1wx--11016.4 990.1 0.4----22----
2019-07-19 02:00:00 9.1 9.0 9.0--- 9930.0wx-wx1wx--11016.2 989.9 0.2----22----
2019-07-19 01:00:00 9.8 9.7 9.7--- 9930.0wx-wx1wx--11016.1 989.8 0.4----22----
2019-07-19 00:00:00 9.9 9.6 9.6--- 9830.0wx-1wx--11016.0 989.7 0.4- 0.06-22----
9.7 ms

 

Print Friendly, PDF & Email